KRME/RME METAR and TAF weather

Enter ICAO airport designator
Station Type Date Time Source
KRME METAR 2022/01/26 19:53 UTC NOAA

KRME 261953Z 28005KT 10SM BKN049 M09/M19 A3039 RMK AO2 SLP301 T10941189


Station Type Date Time Source
KRME Decoded METAR 2022/01/26 19:53 UTC NOAA

GRIFFISS AIRFIELD, NY, United States (KRME) 43-14N 075-24W
Jan 26, 2022 - 02:53 PM EST / 2022.01.26 1953 UTC
Wind: from the W (280 degrees) at 6 MPH (5 KT):0
Visibility: 10 mile(s):0
Sky conditions: mostly cloudy
Temperature: 15.1 F (-9.4 C)
Windchill: 6 F (-14 C):1
Dew Point: -2.0 F (-18.9 C)
Relative Humidity: 45%
Pressure (altimeter): 30.39 in. Hg (1029 hPa)
ob: KRME 261953Z 28005KT 10SM BKN049 M09/M19 A3039 RMK AO2 SLP301 T10941189
cycle: 20

Station Type Date Time Source
KRME TAF 2022/01/26 18:36 UTC NOAA

TAF KRME 261734Z 2618/2718 29004KT P6SM FEW180
FM271600 18006G12KT P6SM SCT250

Example: see airport list